createdAt,value
2017-12-27T00:00:46.174Z,18.90
2017-12-27T00:01:51.588Z,18.90
2017-12-27T00:02:57.773Z,18.90
2017-12-27T00:04:02.955Z,18.80
2017-12-27T00:05:07.910Z,18.80
2017-12-27T00:06:12.809Z,18.80
2017-12-27T00:07:17.873Z,18.80
2017-12-27T00:08:22.801Z,18.80
2017-12-27T00:09:27.888Z,18.80
2017-12-27T00:10:32.929Z,18.80
2017-12-27T00:11:37.876Z,18.80
2017-12-27T00:12:42.843Z,18.80
2017-12-27T00:13:47.741Z,18.80
2017-12-27T00:14:52.780Z,18.80
2017-12-27T00:15:57.642Z,18.70
2017-12-27T00:17:02.591Z,18.70
2017-12-27T00:18:07.900Z,18.70
2017-12-27T00:19:12.899Z,18.70
2017-12-27T00:20:17.902Z,18.70
2017-12-27T00:21:24.181Z,18.70
2017-12-27T00:22:29.088Z,18.70
2017-12-27T00:23:33.953Z,18.70
2017-12-27T00:24:53.406Z,18.70
2017-12-27T00:25:58.237Z,18.70
2017-12-27T00:27:03.070Z,18.70
2017-12-27T00:28:08.085Z,18.70
2017-12-27T00:29:12.915Z,18.70
2017-12-27T00:30:17.942Z,18.70
2017-12-27T00:31:22.729Z,18.70
2017-12-27T00:32:27.651Z,18.70
2017-12-27T00:33:32.558Z,18.70
2017-12-27T00:34:37.376Z,18.60
2017-12-27T00:35:42.477Z,18.60
2017-12-27T00:36:47.280Z,18.60
2017-12-27T00:37:52.291Z,18.60
2017-12-27T00:38:57.380Z,18.60
2017-12-27T00:40:02.723Z,18.60
2017-12-27T00:41:07.486Z,18.60
2017-12-27T00:42:12.355Z,18.60
2017-12-27T00:43:17.298Z,18.60
2017-12-27T00:44:22.307Z,18.60
2017-12-27T00:45:27.131Z,18.60
2017-12-27T00:46:31.945Z,18.50
2017-12-27T00:47:36.676Z,18.50
2017-12-27T00:48:41.684Z,18.50
2017-12-27T00:49:46.501Z,18.50
2017-12-27T00:50:51.449Z,18.50
2017-12-27T00:51:56.235Z,18.50
2017-12-27T00:53:01.251Z,18.50
2017-12-27T00:54:06.112Z,18.50
2017-12-27T00:55:11.168Z,18.50
2017-12-27T00:56:16.196Z,18.50
2017-12-27T00:57:22.338Z,18.50
2017-12-27T00:58:27.244Z,18.50
2017-12-27T00:59:32.152Z,18.50
2017-12-27T01:00:37.083Z,18.50
2017-12-27T01:01:41.881Z,18.50
2017-12-27T01:02:46.688Z,18.50
2017-12-27T01:03:51.708Z,18.50
2017-12-27T01:04:56.433Z,18.50
2017-12-27T01:06:01.404Z,18.50
2017-12-27T01:07:06.615Z,18.50
2017-12-27T01:08:11.648Z,18.50
2017-12-27T01:09:16.637Z,18.50
2017-12-27T01:10:21.442Z,18.40
2017-12-27T01:11:26.271Z,18.40
2017-12-27T01:12:31.130Z,18.50
2017-12-27T01:13:35.854Z,18.40
2017-12-27T01:14:40.793Z,18.40
2017-12-27T01:15:45.689Z,18.40
2017-12-27T01:16:50.570Z,18.40
2017-12-27T01:17:55.473Z,18.40
2017-12-27T01:19:00.454Z,18.40
2017-12-27T01:20:05.209Z,18.40
2017-12-27T01:21:10.239Z,18.40
2017-12-27T01:22:15.203Z,18.40
2017-12-27T01:23:20.019Z,18.40
2017-12-27T01:24:24.963Z,18.40
2017-12-27T01:25:29.788Z,18.40
2017-12-27T01:26:34.588Z,18.40
2017-12-27T01:27:40.250Z,18.40
2017-12-27T01:28:46.006Z,18.40
2017-12-27T01:29:51.798Z,18.40
2017-12-27T01:30:57.230Z,18.40
2017-12-27T01:32:02.994Z,18.40
2017-12-27T01:33:08.075Z,18.40
2017-12-27T01:34:12.826Z,18.40
2017-12-27T01:35:17.760Z,18.40
2017-12-27T01:36:22.773Z,18.40
2017-12-27T01:37:27.572Z,18.40
2017-12-27T01:38:32.570Z,18.40
2017-12-27T01:39:37.369Z,18.40
2017-12-27T01:40:42.222Z,18.40
2017-12-27T01:41:47.191Z,18.40
2017-12-27T01:42:52.270Z,18.40
2017-12-27T01:43:57.088Z,18.40
2017-12-27T01:45:01.985Z,18.30
2017-12-27T01:46:06.759Z,18.30
2017-12-27T01:47:11.952Z,18.30
2017-12-27T01:48:17.450Z,18.30
2017-12-27T01:49:22.333Z,18.30
2017-12-27T01:50:27.411Z,18.30
2017-12-27T01:51:32.425Z,18.30
2017-12-27T01:52:37.450Z,18.30
2017-12-27T01:53:42.165Z,18.30
2017-12-27T01:54:47.163Z,18.30
2017-12-27T01:55:51.951Z,18.30
2017-12-27T01:56:56.960Z,18.30
2017-12-27T01:58:02.000Z,18.30
2017-12-27T01:59:06.983Z,18.30
2017-12-27T02:00:11.684Z,18.30
2017-12-27T02:01:16.672Z,18.30
2017-12-27T02:02:21.595Z,18.20
2017-12-27T02:03:27.731Z,18.30
2017-12-27T02:04:32.480Z,18.30
2017-12-27T02:05:38.503Z,18.20
2017-12-27T02:06:43.320Z,18.20
2017-12-27T02:07:48.094Z,18.30
2017-12-27T02:08:53.136Z,18.20
2017-12-27T02:09:58.115Z,18.20
2017-12-27T02:11:03.197Z,18.20
2017-12-27T02:12:08.191Z,18.20
2017-12-27T02:13:13.192Z,18.20
2017-12-27T02:14:18.176Z,18.20
2017-12-27T02:15:23.017Z,18.30
2017-12-27T02:16:28.042Z,18.20
2017-12-27T02:17:32.839Z,18.20
2017-12-27T02:18:37.856Z,18.20
2017-12-27T02:19:42.670Z,18.20
2017-12-27T02:20:47.624Z,18.20
2017-12-27T02:21:52.408Z,18.20
2017-12-27T02:22:57.231Z,18.20
2017-12-27T02:24:03.344Z,18.20
2017-12-27T02:25:08.147Z,18.20
2017-12-27T02:26:12.935Z,18.20
2017-12-27T02:27:17.728Z,18.20
2017-12-27T02:28:22.652Z,18.20
2017-12-27T02:29:27.470Z,18.20
2017-12-27T02:30:32.290Z,18.20
2017-12-27T02:31:36.961Z,18.20
2017-12-27T02:32:41.834Z,18.20
2017-12-27T02:33:46.772Z,18.20
2017-12-27T02:34:51.477Z,18.20
2017-12-27T02:35:56.411Z,18.20
2017-12-27T02:37:01.421Z,18.20
2017-12-27T02:38:06.439Z,18.20
2017-12-27T02:39:11.256Z,18.20
2017-12-27T02:40:16.151Z,18.20
2017-12-27T02:41:20.937Z,18.20
2017-12-27T02:42:26.561Z,18.20
2017-12-27T02:43:31.467Z,18.20
2017-12-27T02:44:36.227Z,18.10
2017-12-27T02:45:41.520Z,18.20
2017-12-27T02:46:46.544Z,18.20
2017-12-27T02:47:51.451Z,18.10
2017-12-27T02:48:56.387Z,18.10
2017-12-27T02:50:01.327Z,18.10
2017-12-27T02:51:06.129Z,18.10
2017-12-27T02:52:11.178Z,18.20
2017-12-27T02:53:16.148Z,18.10
2017-12-27T02:54:21.285Z,18.10
2017-12-27T02:55:26.223Z,18.10
2017-12-27T02:56:31.178Z,18.10
2017-12-27T02:57:35.995Z,18.10
2017-12-27T02:58:40.856Z,18.10
2017-12-27T02:59:45.838Z,18.10
2017-12-27T03:00:51.502Z,18.10
2017-12-27T03:01:56.483Z,18.10
2017-12-27T03:03:01.552Z,18.10
2017-12-27T03:04:08.170Z,18.10
2017-12-27T03:05:13.129Z,18.10
2017-12-27T03:06:17.979Z,18.10
2017-12-27T03:07:22.804Z,18.10
2017-12-27T03:08:27.726Z,18.10
2017-12-27T03:09:32.701Z,18.10
2017-12-27T03:10:37.677Z,18.10
2017-12-27T03:11:42.448Z,18.10
2017-12-27T03:12:47.516Z,18.10
2017-12-27T03:13:52.338Z,18.10
2017-12-27T03:14:57.100Z,18.10
2017-12-27T03:16:02.083Z,18.10
2017-12-27T03:17:07.099Z,18.10
2017-12-27T03:18:12.076Z,18.10
2017-12-27T03:19:17.397Z,18.10
2017-12-27T03:20:22.549Z,18.10
2017-12-27T03:21:27.396Z,18.10
2017-12-27T03:22:32.372Z,18.10
2017-12-27T03:23:37.349Z,18.10
2017-12-27T03:24:42.140Z,18.10
2017-12-27T03:25:46.935Z,18.10
2017-12-27T03:26:51.935Z,18.10
2017-12-27T03:27:57.018Z,18.10
2017-12-27T03:29:01.782Z,18.10
2017-12-27T03:30:06.763Z,18.10
2017-12-27T03:31:11.519Z,18.10
2017-12-27T03:32:16.427Z,18.10
2017-12-27T03:33:21.167Z,18.10
2017-12-27T03:34:26.092Z,18.10
2017-12-27T03:35:30.977Z,18.10
2017-12-27T03:36:35.907Z,18.10
2017-12-27T03:37:40.913Z,18.10
2017-12-27T03:38:45.661Z,18.00
2017-12-27T03:39:50.578Z,18.10
2017-12-27T03:40:55.522Z,18.00
2017-12-27T03:42:00.490Z,18.10
2017-12-27T03:43:05.470Z,18.10
2017-12-27T03:44:10.270Z,18.10
2017-12-27T03:45:15.306Z,18.00
2017-12-27T03:46:20.105Z,18.00
2017-12-27T03:47:25.136Z,18.00
2017-12-27T03:48:29.938Z,18.00
2017-12-27T03:49:34.916Z,18.00
2017-12-27T03:50:39.749Z,18.00
2017-12-27T03:51:44.710Z,18.00
2017-12-27T03:52:49.725Z,18.00
2017-12-27T03:53:54.686Z,18.00
2017-12-27T03:54:59.688Z,18.00
2017-12-27T03:56:04.868Z,18.00
2017-12-27T03:57:09.817Z,18.00
2017-12-27T03:58:14.784Z,18.00
2017-12-27T03:59:19.819Z,18.00
2017-12-27T04:00:25.003Z,18.00
2017-12-27T04:01:29.959Z,18.00
2017-12-27T04:02:34.690Z,18.00
2017-12-27T04:03:39.695Z,18.00
2017-12-27T04:04:44.506Z,18.00
2017-12-27T04:05:49.438Z,18.00
2017-12-27T04:06:54.251Z,18.00
2017-12-27T04:07:59.141Z,18.00
2017-12-27T04:09:04.038Z,18.00
2017-12-27T04:10:08.789Z,18.00
2017-12-27T04:11:13.786Z,18.00
2017-12-27T04:12:18.503Z,18.00
2017-12-27T04:13:23.454Z,18.00
2017-12-27T04:14:28.697Z,18.00
2017-12-27T04:15:33.652Z,18.00
2017-12-27T04:16:38.589Z,18.00
2017-12-27T04:17:43.585Z,18.00
2017-12-27T04:18:48.558Z,18.00
2017-12-27T04:19:53.486Z,18.00
2017-12-27T04:20:58.261Z,18.00
2017-12-27T04:22:03.041Z,18.00
2017-12-27T04:23:07.792Z,18.00
2017-12-27T04:24:12.793Z,18.00
2017-12-27T04:25:17.536Z,18.00
2017-12-27T04:26:22.375Z,18.00
2017-12-27T04:27:27.160Z,17.90
2017-12-27T04:28:31.906Z,18.00
2017-12-27T04:29:36.838Z,18.00
2017-12-27T04:30:41.676Z,17.90
2017-12-27T04:31:46.490Z,17.90
2017-12-27T04:32:52.005Z,18.00
2017-12-27T04:33:56.767Z,18.00
2017-12-27T04:35:01.529Z,17.90
2017-12-27T04:36:06.471Z,18.00
2017-12-27T04:37:11.308Z,18.00
2017-12-27T04:38:16.007Z,18.00
2017-12-27T04:39:21.034Z,17.90
2017-12-27T04:40:25.787Z,18.00
2017-12-27T04:41:30.745Z,18.00
2017-12-27T04:42:35.747Z,18.00
2017-12-27T04:43:40.728Z,17.90
2017-12-27T04:44:45.670Z,17.90
2017-12-27T04:45:50.677Z,17.90
2017-12-27T04:46:55.563Z,18.00
2017-12-27T04:48:00.593Z,17.90
2017-12-27T04:49:05.402Z,18.00
2017-12-27T04:50:10.264Z,18.00
2017-12-27T04:51:16.061Z,18.00
2017-12-27T04:52:21.028Z,17.90
2017-12-27T04:53:26.107Z,17.90
2017-12-27T04:54:31.073Z,17.90
2017-12-27T04:55:35.867Z,17.90
2017-12-27T04:56:40.810Z,17.90
2017-12-27T04:57:45.531Z,17.90
2017-12-27T04:58:50.296Z,17.90
2017-12-27T04:59:55.216Z,17.90
2017-12-27T05:00:59.990Z,17.90
2017-12-27T05:02:04.752Z,17.90
2017-12-27T05:03:09.499Z,17.90
2017-12-27T05:04:14.540Z,17.90
2017-12-27T05:05:19.620Z,17.90
2017-12-27T05:06:24.475Z,17.90
2017-12-27T05:07:29.328Z,17.90
2017-12-27T05:08:34.134Z,17.90
2017-12-27T05:09:39.798Z,17.90
2017-12-27T05:10:44.606Z,17.90
2017-12-27T05:11:49.611Z,17.90
2017-12-27T05:12:54.407Z,17.90
2017-12-27T05:13:59.201Z,17.90
2017-12-27T05:15:03.990Z,17.90
2017-12-27T05:16:08.753Z,17.90
2017-12-27T05:17:14.770Z,17.90
2017-12-27T05:18:19.574Z,17.90
2017-12-27T05:19:24.521Z,17.90
2017-12-27T05:20:29.302Z,17.90
2017-12-27T05:21:34.105Z,17.90
2017-12-27T05:22:38.898Z,17.90
2017-12-27T05:23:43.860Z,17.90
2017-12-27T05:24:48.655Z,17.90
2017-12-27T05:25:53.635Z,17.90
2017-12-27T05:26:58.571Z,17.90
2017-12-27T05:28:04.252Z,17.90
2017-12-27T05:29:09.226Z,17.90
2017-12-27T05:30:14.702Z,17.80
2017-12-27T05:31:19.684Z,17.90
2017-12-27T05:32:24.464Z,17.80
2017-12-27T05:33:29.239Z,17.80
2017-12-27T05:34:34.514Z,17.80
2017-12-27T05:35:39.335Z,17.90
2017-12-27T05:36:44.278Z,17.90
2017-12-27T05:37:49.078Z,17.80
2017-12-27T05:38:53.927Z,17.90
2017-12-27T05:39:58.934Z,17.90
2017-12-27T05:41:03.780Z,17.90
2017-12-27T05:42:08.530Z,17.90
2017-12-27T05:43:13.539Z,17.80
2017-12-27T05:44:18.374Z,17.80
2017-12-27T05:45:23.443Z,17.90
2017-12-27T05:46:28.462Z,17.90
2017-12-27T05:47:33.399Z,17.90
2017-12-27T05:48:38.250Z,17.80
2017-12-27T05:49:43.058Z,17.90
2017-12-27T05:50:48.691Z,17.80
2017-12-27T05:51:53.614Z,17.90
2017-12-27T05:52:58.377Z,17.80
2017-12-27T05:54:03.149Z,17.80
2017-12-27T05:55:07.974Z,17.80
2017-12-27T05:56:12.924Z,17.80
2017-12-27T05:57:17.837Z,17.80
2017-12-27T05:58:22.945Z,17.80
2017-12-27T05:59:27.914Z,17.80
2017-12-27T06:00:32.743Z,17.80
2017-12-27T06:01:37.497Z,17.80
2017-12-27T06:02:42.377Z,17.80
2017-12-27T06:03:47.172Z,17.80
2017-12-27T06:04:52.064Z,17.80
2017-12-27T06:05:57.035Z,17.80
2017-12-27T06:07:01.965Z,17.80
2017-12-27T06:08:06.934Z,17.80
2017-12-27T06:09:11.717Z,17.80
2017-12-27T06:10:16.472Z,17.80
2017-12-27T06:11:21.452Z,17.80
2017-12-27T06:12:26.242Z,17.80
2017-12-27T06:13:31.065Z,17.80
2017-12-27T06:14:37.370Z,17.80
2017-12-27T06:15:42.500Z,17.80
2017-12-27T06:16:47.567Z,17.80
2017-12-27T06:17:52.322Z,17.80
2017-12-27T06:18:57.488Z,17.80
2017-12-27T06:20:02.258Z,17.80
2017-12-27T06:21:07.144Z,17.80
2017-12-27T06:22:12.065Z,17.80
2017-12-27T06:23:17.013Z,17.80
2017-12-27T06:24:21.943Z,17.80
2017-12-27T06:25:26.776Z,17.80
2017-12-27T06:26:31.796Z,17.80
2017-12-27T06:27:36.743Z,17.80
2017-12-27T06:28:41.705Z,17.80
2017-12-27T06:29:46.423Z,17.80
2017-12-27T06:30:51.364Z,17.80
2017-12-27T06:31:56.377Z,17.80
2017-12-27T06:33:01.443Z,17.80
2017-12-27T06:34:06.410Z,17.80
2017-12-27T06:35:11.430Z,17.80
2017-12-27T06:36:16.249Z,17.80
2017-12-27T06:37:21.263Z,17.80
2017-12-27T06:38:26.165Z,17.80
2017-12-27T06:39:30.953Z,17.90
2017-12-27T06:40:35.728Z,17.90
2017-12-27T06:41:40.792Z,17.90
2017-12-27T06:42:45.688Z,18.00
2017-12-27T06:43:50.451Z,18.00
2017-12-27T06:44:55.259Z,18.00
2017-12-27T06:46:00.278Z,18.10
2017-12-27T06:47:05.242Z,18.20
2017-12-27T06:48:10.210Z,18.20
2017-12-27T06:49:14.975Z,18.30
2017-12-27T06:50:19.893Z,18.40
2017-12-27T06:51:24.882Z,18.50
2017-12-27T06:52:29.730Z,18.70
2017-12-27T06:53:35.989Z,18.70
2017-12-27T06:54:43.771Z,18.80
2017-12-27T06:55:48.674Z,19.00
2017-12-27T06:56:53.711Z,19.10
2017-12-27T06:57:58.724Z,19.10
2017-12-27T06:59:03.628Z,19.30
2017-12-27T07:00:08.570Z,19.30
2017-12-27T07:01:13.484Z,19.40
2017-12-27T07:02:18.531Z,19.50
2017-12-27T07:03:23.542Z,19.60
2017-12-27T07:04:28.328Z,19.70
2017-12-27T07:05:33.357Z,19.70
2017-12-27T07:06:38.173Z,19.80
2017-12-27T07:07:43.051Z,19.80
2017-12-27T07:08:47.883Z,19.90
2017-12-27T07:09:53.305Z,19.90
2017-12-27T07:10:58.327Z,19.90
2017-12-27T07:12:03.208Z,20.00
2017-12-27T07:13:07.969Z,20.00
2017-12-27T07:14:12.918Z,20.00
2017-12-27T07:15:17.944Z,20.00
2017-12-27T07:16:22.810Z,20.00
2017-12-27T07:17:27.843Z,20.00
2017-12-27T07:18:32.931Z,20.10
2017-12-27T07:19:38.004Z,20.10
2017-12-27T07:20:43.120Z,20.10
2017-12-27T07:21:48.175Z,20.10
2017-12-27T07:22:52.967Z,20.20
2017-12-27T07:23:57.807Z,20.10
2017-12-27T07:25:02.577Z,20.20
2017-12-27T07:26:07.433Z,20.20
2017-12-27T07:27:12.453Z,20.20
2017-12-27T07:28:17.498Z,20.20
2017-12-27T07:29:23.408Z,20.20
2017-12-27T07:30:28.476Z,20.20
2017-12-27T07:31:33.495Z,20.10
2017-12-27T07:32:38.306Z,20.10
2017-12-27T07:33:43.087Z,20.10
2017-12-27T07:34:48.002Z,20.10
2017-12-27T07:35:53.169Z,20.10
2017-12-27T07:36:59.207Z,20.00
2017-12-27T07:38:03.992Z,20.00
2017-12-27T07:39:08.822Z,20.00
2017-12-27T07:40:13.586Z,20.00
2017-12-27T07:41:18.414Z,20.00
2017-12-27T07:42:23.212Z,20.00
2017-12-27T07:43:28.132Z,20.00
2017-12-27T07:44:33.152Z,20.00
2017-12-27T07:45:38.950Z,20.00
2017-12-27T07:46:43.700Z,20.00
2017-12-27T07:47:48.643Z,20.00
2017-12-27T07:48:53.579Z,20.00
2017-12-27T07:49:58.562Z,19.90
2017-12-27T07:51:03.379Z,19.90
2017-12-27T07:52:08.357Z,19.80
2017-12-27T07:53:13.327Z,19.80
2017-12-27T07:54:18.628Z,19.80
2017-12-27T07:55:23.643Z,19.70
2017-12-27T07:56:28.431Z,19.70
2017-12-27T07:57:33.395Z,19.70
2017-12-27T07:58:38.231Z,19.70
2017-12-27T07:59:43.021Z,19.70
2017-12-27T08:00:47.752Z,19.70
2017-12-27T08:01:52.882Z,19.70
2017-12-27T08:02:57.648Z,19.70
2017-12-27T08:04:03.323Z,19.70
2017-12-27T08:05:08.084Z,19.70
2017-12-27T08:06:12.869Z,19.60
2017-12-27T08:07:17.851Z,19.60
2017-12-27T08:08:22.863Z,19.60
2017-12-27T08:09:27.832Z,19.60
2017-12-27T08:10:32.734Z,19.60
2017-12-27T08:11:37.500Z,19.60
2017-12-27T08:12:42.275Z,19.60
2017-12-27T08:13:47.061Z,19.60
2017-12-27T08:14:52.044Z,19.50
2017-12-27T08:15:56.789Z,19.50
2017-12-27T08:17:01.714Z,19.50
2017-12-27T08:18:06.445Z,19.50
2017-12-27T08:19:11.350Z,19.50
2017-12-27T08:20:16.062Z,19.50
2017-12-27T08:21:21.028Z,19.40
2017-12-27T08:22:25.904Z,19.50
2017-12-27T08:23:30.909Z,19.40
2017-12-27T08:24:35.925Z,19.40
2017-12-27T08:25:41.346Z,19.30
2017-12-27T08:26:46.603Z,19.30
2017-12-27T08:27:51.980Z,19.30
2017-12-27T08:28:57.598Z,19.30
2017-12-27T08:30:03.119Z,19.20
2017-12-27T08:31:08.149Z,19.20
2017-12-27T08:32:13.593Z,19.20
2017-12-27T08:33:18.487Z,19.20
2017-12-27T08:34:23.441Z,19.20
2017-12-27T08:35:28.330Z,19.20
2017-12-27T08:36:33.115Z,19.20
2017-12-27T08:37:38.104Z,19.20
2017-12-27T08:38:43.093Z,19.20
2017-12-27T08:39:48.129Z,19.20
2017-12-27T08:40:52.948Z,19.20
2017-12-27T08:41:57.984Z,19.20
2017-12-27T08:43:03.448Z,19.20
2017-12-27T08:44:09.356Z,19.20
2017-12-27T08:45:15.203Z,19.20
2017-12-27T08:46:20.327Z,19.30
2017-12-27T08:47:25.285Z,19.30
2017-12-27T08:48:30.371Z,19.30
2017-12-27T08:49:35.432Z,19.30
2017-12-27T08:50:40.331Z,19.30
2017-12-27T08:51:45.260Z,19.20
2017-12-27T08:52:50.353Z,19.20
2017-12-27T08:53:56.144Z,19.20
2017-12-27T08:55:01.101Z,19.10
2017-12-27T08:56:06.012Z,19.10
2017-12-27T08:57:11.097Z,19.10
2017-12-27T08:58:16.211Z,19.10
2017-12-27T08:59:21.192Z,19.10
2017-12-27T09:00:26.071Z,19.10
2017-12-27T09:01:30.907Z,19.00
2017-12-27T09:02:35.820Z,19.00
2017-12-27T09:03:40.908Z,19.00
2017-12-27T09:04:45.914Z,19.00
2017-12-27T09:05:50.910Z,19.00
2017-12-27T09:06:56.098Z,19.00
2017-12-27T09:08:01.240Z,19.00
2017-12-27T09:09:09.056Z,19.00
2017-12-27T09:10:14.087Z,19.00
2017-12-27T09:11:20.329Z,19.00
2017-12-27T09:12:25.622Z,19.00
2017-12-27T09:13:30.519Z,19.00
2017-12-27T09:14:35.809Z,19.00
2017-12-27T09:15:40.815Z,19.00
2017-12-27T09:16:45.773Z,19.00
2017-12-27T09:17:50.779Z,19.00
2017-12-27T09:18:55.524Z,19.00
2017-12-27T09:20:00.488Z,19.00
2017-12-27T09:21:05.272Z,19.00
2017-12-27T09:22:10.092Z,19.00
2017-12-27T09:23:15.667Z,19.00
2017-12-27T09:24:20.540Z,19.00
2017-12-27T09:25:25.513Z,19.00
2017-12-27T09:26:30.519Z,19.00
2017-12-27T09:27:35.331Z,19.00
2017-12-27T09:28:40.106Z,19.00
2017-12-27T09:29:45.587Z,19.00
2017-12-27T09:30:50.549Z,19.00
2017-12-27T09:31:55.856Z,19.00
2017-12-27T09:33:00.821Z,19.00
2017-12-27T09:34:05.581Z,18.90
2017-12-27T09:35:10.568Z,18.90
2017-12-27T09:36:15.296Z,18.90
2017-12-27T09:37:21.285Z,18.90
2017-12-27T09:38:26.012Z,18.90
2017-12-27T09:39:30.965Z,18.80
2017-12-27T09:40:35.875Z,18.80
2017-12-27T09:41:40.986Z,18.80
2017-12-27T09:42:46.016Z,18.80
2017-12-27T09:43:50.810Z,18.80
2017-12-27T09:44:55.756Z,18.80
2017-12-27T09:46:00.600Z,18.80
2017-12-27T09:47:05.561Z,18.80
2017-12-27T09:48:10.415Z,18.80
2017-12-27T09:49:15.191Z,18.80
2017-12-27T09:50:20.345Z,18.80
2017-12-27T09:51:25.489Z,18.80
2017-12-27T09:52:30.624Z,18.80
2017-12-27T09:53:35.899Z,18.80
2017-12-27T09:54:41.058Z,18.80
2017-12-27T09:55:46.127Z,18.80
2017-12-27T09:56:51.235Z,18.80
2017-12-27T09:57:56.333Z,18.80
2017-12-27T09:59:01.414Z,18.80
2017-12-27T10:00:06.394Z,18.80
2017-12-27T10:01:11.444Z,18.80
2017-12-27T10:02:16.387Z,18.80
2017-12-27T10:03:21.195Z,18.80
2017-12-27T10:04:26.186Z,18.80
2017-12-27T10:05:31.142Z,18.80
2017-12-27T10:06:35.973Z,18.80
2017-12-27T10:07:40.977Z,18.80
2017-12-27T10:08:45.998Z,18.80
2017-12-27T10:09:50.975Z,18.80
2017-12-27T10:10:55.949Z,18.70
2017-12-27T10:12:01.218Z,18.70
2017-12-27T10:13:06.078Z,18.70
2017-12-27T10:14:10.984Z,18.70
2017-12-27T10:15:17.528Z,18.60
2017-12-27T10:16:22.753Z,18.70
2017-12-27T10:17:27.684Z,18.70
2017-12-27T10:18:32.646Z,18.70
2017-12-27T10:19:37.506Z,18.60
2017-12-27T10:20:42.529Z,18.60
2017-12-27T10:21:47.714Z,18.60
2017-12-27T10:22:52.922Z,18.60
2017-12-27T10:23:58.008Z,18.60
2017-12-27T10:25:03.177Z,18.60
2017-12-27T10:26:08.246Z,18.60
2017-12-27T10:27:13.289Z,18.60
2017-12-27T10:28:18.502Z,18.60
2017-12-27T10:29:23.597Z,18.50
2017-12-27T10:30:28.628Z,18.50
2017-12-27T10:31:33.766Z,18.50
2017-12-27T10:32:38.794Z,18.60
2017-12-27T10:33:44.062Z,18.50
2017-12-27T10:34:49.693Z,18.60
2017-12-27T10:35:54.937Z,18.60
2017-12-27T10:37:00.031Z,18.60
2017-12-27T10:38:05.118Z,18.60
2017-12-27T10:39:10.258Z,18.60
2017-12-27T10:40:15.165Z,18.60
2017-12-27T10:41:20.366Z,18.60
2017-12-27T10:42:25.231Z,18.60
2017-12-27T10:43:30.386Z,18.60
2017-12-27T10:44:35.430Z,18.60
2017-12-27T10:45:40.511Z,18.60
2017-12-27T10:46:45.459Z,18.60
2017-12-27T10:47:50.441Z,18.60
2017-12-27T10:48:55.452Z,18.60
2017-12-27T10:50:00.619Z,18.60
2017-12-27T10:51:05.658Z,18.60
2017-12-27T10:52:11.439Z,18.60
2017-12-27T10:53:16.639Z,18.70
2017-12-27T10:54:24.961Z,18.70
2017-12-27T10:55:30.138Z,18.70
2017-12-27T10:56:34.993Z,18.70
2017-12-27T10:57:40.457Z,18.70
2017-12-27T10:58:45.549Z,18.70
2017-12-27T10:59:50.622Z,18.70
2017-12-27T11:00:55.803Z,18.70
2017-12-27T11:02:00.699Z,18.70
2017-12-27T11:03:05.763Z,18.70
2017-12-27T11:04:11.454Z,18.70
2017-12-27T11:05:16.512Z,18.70
2017-12-27T11:06:21.658Z,18.70
2017-12-27T11:07:26.817Z,18.70
2017-12-27T11:08:32.093Z,18.70
2017-12-27T11:09:37.081Z,18.70
2017-12-27T11:10:42.019Z,18.70
2017-12-27T11:11:47.026Z,18.70
2017-12-27T11:12:52.378Z,18.70
2017-12-27T11:13:57.565Z,18.60
2017-12-27T11:15:02.572Z,18.60
2017-12-27T11:16:07.732Z,18.60
2017-12-27T11:17:12.811Z,18.60
2017-12-27T11:18:17.884Z,18.60
2017-12-27T11:19:23.065Z,18.60
2017-12-27T11:20:28.286Z,18.60
2017-12-27T11:21:33.580Z,18.50
2017-12-27T11:22:38.635Z,18.50
2017-12-27T11:23:43.587Z,18.50
2017-12-27T11:24:48.847Z,18.50
2017-12-27T11:25:54.906Z,18.60
2017-12-27T11:27:00.216Z,18.50
2017-12-27T11:28:05.371Z,18.50
2017-12-27T11:29:10.674Z,18.50
2017-12-27T11:30:16.289Z,18.50
2017-12-27T11:31:21.451Z,18.50
2017-12-27T11:32:26.476Z,18.50
2017-12-27T11:33:31.689Z,18.50
2017-12-27T11:34:36.692Z,18.50
2017-12-27T11:35:41.942Z,18.50
2017-12-27T11:36:47.059Z,18.60
2017-12-27T11:37:52.078Z,18.50
2017-12-27T11:38:57.178Z,18.50
2017-12-27T11:40:02.387Z,18.50
2017-12-27T11:41:07.496Z,18.50
2017-12-27T11:42:14.404Z,18.50
2017-12-27T11:43:19.303Z,18.50
2017-12-27T11:44:24.387Z,18.50
2017-12-27T11:45:29.537Z,18.50
2017-12-27T11:46:34.582Z,18.50
2017-12-27T11:47:39.771Z,18.50
2017-12-27T11:48:44.946Z,18.50
2017-12-27T11:49:50.057Z,18.50
2017-12-27T11:50:54.958Z,18.50
2017-12-27T11:52:00.204Z,18.50
2017-12-27T11:53:05.457Z,18.60
2017-12-27T11:54:10.408Z,18.60
2017-12-27T11:55:15.505Z,18.60
2017-12-27T11:56:20.515Z,18.50
2017-12-27T11:57:25.473Z,18.40
2017-12-27T11:58:30.593Z,18.30
2017-12-27T11:59:35.938Z,18.20
2017-12-27T12:00:41.214Z,18.10
2017-12-27T12:01:46.780Z,17.80
2017-12-27T12:02:51.617Z,17.70
2017-12-27T12:03:56.907Z,17.60
2017-12-27T12:05:02.207Z,17.50
2017-12-27T12:06:07.611Z,17.50
2017-12-27T12:07:12.889Z,17.40
2017-12-27T12:08:17.702Z,17.30
2017-12-27T12:09:22.677Z,17.30
2017-12-27T12:10:27.704Z,17.20
2017-12-27T12:11:32.627Z,17.20
2017-12-27T12:12:37.655Z,17.20
2017-12-27T12:13:42.501Z,17.30
2017-12-27T12:14:47.615Z,17.30
2017-12-27T12:15:52.686Z,17.40
2017-12-27T12:16:57.747Z,17.50
2017-12-27T12:18:03.776Z,17.50
2017-12-27T12:19:08.928Z,17.60
2017-12-27T12:20:14.066Z,17.70
2017-12-27T12:21:18.988Z,17.70
2017-12-27T12:22:24.111Z,17.80
2017-12-27T12:23:29.358Z,17.80
2017-12-27T12:24:34.363Z,17.80
2017-12-27T12:25:39.364Z,17.80
2017-12-27T12:26:56.957Z,17.80
2017-12-27T12:28:03.361Z,17.80
2017-12-27T12:29:09.445Z,17.80
2017-12-27T12:30:14.388Z,17.90
2017-12-27T12:31:19.240Z,17.90
2017-12-27T12:32:24.174Z,17.90
2017-12-27T12:33:29.182Z,17.90
2017-12-27T12:34:34.086Z,17.90
2017-12-27T12:35:39.018Z,17.90
2017-12-27T12:36:43.834Z,17.90
2017-12-27T12:37:48.773Z,17.90
2017-12-27T12:38:53.548Z,17.90
2017-12-27T12:39:58.498Z,17.90
2017-12-27T12:41:03.486Z,17.90
2017-12-27T12:42:08.443Z,17.90
2017-12-27T12:43:13.412Z,17.90
2017-12-27T12:44:18.432Z,17.90
2017-12-27T12:45:23.257Z,17.90
2017-12-27T12:46:28.243Z,17.90
2017-12-27T12:47:34.239Z,17.90
2017-12-27T12:48:39.053Z,17.90
2017-12-27T12:49:44.028Z,17.90
2017-12-27T12:50:49.043Z,17.90
2017-12-27T12:51:53.851Z,17.90
2017-12-27T12:52:58.794Z,17.90
2017-12-27T12:54:03.804Z,17.90
2017-12-27T12:55:08.682Z,17.90
2017-12-27T12:56:13.458Z,17.90
2017-12-27T12:57:18.477Z,17.90
2017-12-27T12:58:23.528Z,17.90
2017-12-27T12:59:28.482Z,17.90
2017-12-27T13:00:33.518Z,17.90
2017-12-27T13:01:38.326Z,17.90
2017-12-27T13:02:43.357Z,17.90
2017-12-27T13:03:48.378Z,17.90
2017-12-27T13:04:53.207Z,17.90
2017-12-27T13:05:57.996Z,17.90
2017-12-27T13:07:02.967Z,17.90
2017-12-27T13:08:07.914Z,17.90
2017-12-27T13:09:12.889Z,17.90
2017-12-27T13:10:17.655Z,17.90
2017-12-27T13:11:22.643Z,17.90
2017-12-27T13:12:27.417Z,17.90
2017-12-27T13:13:32.217Z,17.90
2017-12-27T13:14:37.050Z,17.90
2017-12-27T13:15:42.142Z,17.90
2017-12-27T13:16:47.424Z,17.90
2017-12-27T13:17:52.306Z,17.90
2017-12-27T13:18:57.213Z,17.90
2017-12-27T13:20:02.078Z,17.90
2017-12-27T13:21:06.907Z,17.90
2017-12-27T13:22:11.895Z,17.90
2017-12-27T13:23:16.997Z,17.90
2017-12-27T13:24:22.126Z,17.90
2017-12-27T13:25:26.979Z,17.90
2017-12-27T13:26:31.823Z,17.90
2017-12-27T13:27:36.690Z,17.90
2017-12-27T13:28:41.757Z,17.80
2017-12-27T13:29:46.798Z,17.90
2017-12-27T13:30:51.637Z,17.90
2017-12-27T13:31:56.586Z,17.80
2017-12-27T13:33:01.430Z,17.90
2017-12-27T13:34:06.284Z,17.80
2017-12-27T13:35:11.121Z,17.80
2017-12-27T13:36:16.041Z,17.80
2017-12-27T13:37:20.829Z,17.80
2017-12-27T13:38:25.695Z,17.90
2017-12-27T13:39:30.601Z,17.80
2017-12-27T13:40:35.547Z,17.80
2017-12-27T13:41:40.584Z,17.80
2017-12-27T13:42:45.556Z,17.80
2017-12-27T13:43:50.671Z,17.80
2017-12-27T13:44:55.397Z,17.80
2017-12-27T13:46:00.200Z,17.80
2017-12-27T13:47:05.220Z,17.90
2017-12-27T13:48:10.022Z,17.80
2017-12-27T13:49:14.996Z,17.80
2017-12-27T13:50:19.909Z,17.80
2017-12-27T13:51:24.985Z,17.80
2017-12-27T13:52:29.922Z,17.80
2017-12-27T13:53:34.987Z,17.80
2017-12-27T13:54:39.815Z,17.80
2017-12-27T13:55:44.791Z,17.80
2017-12-27T13:56:49.641Z,17.80
2017-12-27T13:57:54.465Z,17.80